• Join FlightAware (Why Join?)
  • Login
  • US Flag 
01:14PM EDT


 

Airport Tracker/Info


-or-


 

Live Flight TrackerFlight Track Log ✈ AWE1092 ✈ 17-Apr-2013 ✈ KMHT - KPHL

Flight Track Log - Related Links

Times and Time Zones

All times are in EDT time to prevent confusion due to time zone crossing. See the AWE1092 flight status page for this flight to view local times or setup timezone preferences in your user account.

Time Position Orientation Groundspeed Altitude Reporting Facility
EDT Latitude Longitude Course Direction KTS MPH feet Rate Location/Type
07:01AM 42.9500 -71.4333 273° West 153 176 1,300  Level KA90
07:02AM 43.0000 -71.4667 334° Northwest 190 219 4,200 2,760 Climbing KA90
07:03AM 42.9390 -71.8338 283° West  Level FlightAware Approximate
07:03AM 43.0303 -71.5228 306° West 196 226 7,400  Level Boston Center
07:04AM 42.9500 -71.9665 270° West  Level FlightAware Approximate
07:04AM 43.0600 -71.5961 299° West 210 242 10,100  Level Boston Center
07:05AM 42.9501 -72.1008 270° West  Level FlightAware Approximate
07:05AM 43.0628 -71.7014 272° West 249 287 11,800  Level Boston Center
07:06AM 42.9508 -72.2352 273° West  Level FlightAware Approximate
07:06AM 43.0572 -71.8206 266° West 311 358 15,000  Level Boston Center
07:07AM 43.0536 -71.9372 268° West 318 366 17,900 2,400 Climbing Boston Center
07:08AM 43.0478 -72.0594 266° West 318 366 20,000 2,100 Climbing Boston Center
07:09AM 43.0461 -72.1844 269° West 323 372 22,200 1,500 Climbing Boston Center
07:10AM 43.0464 -72.3181 270° West 336 387 23,000 1,200 Climbing Boston Center
07:11AM 43.0422 -72.4572 268° West 362 417 24,700 1,620 Climbing Boston Center
07:12AM 43.0381 -72.6019 268° West 374 430 26,300 1,620 Climbing Boston Center
07:13AM 43.0128 -72.7325 255° West 398 458 28,000 780 Climbing Boston Center
07:14AM 42.9664 -72.8600 244° Southwest 376 433 28,000  Level Boston Center
07:15AM 42.9200 -72.9872 244° Southwest 376 433 28,000  Level Boston Center
07:16AM 42.8736 -73.1200 245° Southwest 371 427 28,000  Level Boston Center
07:17AM 42.8269 -73.2469 243° Southwest 371 427 28,000  Level Boston Center
07:18AM 42.7800 -73.3736 243° Southwest 371 427 28,000  Level Boston Center
07:19AM 42.7394 -73.4861 244° Southwest 371 427 28,000  Level Boston Center
07:20AM 42.6925 -73.6122 243° Southwest 371 427 28,000 -480 Level Boston Center
07:21AM 42.6431 -73.7328 241° Southwest 371 427 27,100 -960 Descending Boston Center
07:22AM 42.5978 -73.8589 244° Southwest 371 427 26,100 -600 Descending Boston Center
07:23AM 42.5525 -73.9817 243° Southwest 371 427 26,000 -60 Descending Boston Center
07:24AM 42.5069 -74.1075 244° Southwest 371 427 26,000  Level Boston Center
07:25AM 42.4592 -74.2300 242° Southwest 371 427 26,000  Level Boston Center
07:26AM 42.4133 -74.3522 243° Southwest 366 421 26,000  Level Boston Center
07:27AM 42.3633 -74.4744 241° Southwest 366 421 26,000 -300 Level Boston Center
07:29AM 42.2147 -74.7497 234° Southwest 371 427 25,100 -780 Descending New York Center
07:30AM 42.1467 -74.8547 229° Southwest 384 442 23,500 -1,560 Descending New York Center
07:31AM 42.0853 -74.9458 228° Southwest 378 435 22,100 -1,500 Descending New York Center
07:32AM 42.0211 -75.0478 230° Southwest 373 429 20,500 -1,560 Descending New York Center
07:33AM 41.9511 -75.1464 226° Southwest 357 411 19,000 -780 Descending New York Center
07:34AM 41.8672 -75.2161 212° Southwest 352 405 19,000 -300 Level New York Center
07:35AM 41.7836 -75.2828 211° Southwest 358 412 18,500 -900 Descending New York Center
07:36AM 41.7061 -75.3442 211° Southwest 358 412 17,300 -1,440 Descending New York Center
07:37AM 41.6267 -75.4108 212° Southwest 349 402 15,700 -1,740 Descending New York Center
07:38AM 41.5383 -75.4797 210° Southwest 349 402 13,800 -1,800 Descending New York Center
07:39AM 41.4589 -75.5433 211° Southwest 349 402 12,200 -900 Descending New York Center
07:40AM 41.3814 -75.6042 211° Southwest 344 396 12,100 -60 Descending New York Center
07:41AM 41.3083 -75.6625 211° Southwest 344 396 12,100 -300 Level New York Center
07:42AM 41.2183 -75.6697 183° South 327 376 11,600 -660 Descending New York Center
07:43AM 41.1133 -75.6372 167° South 345 397 10,900 -660 Descending New York Center
07:44AM 41.0189 -75.6058 166° South 351 404 10,300 -420 Descending New York Center
07:45AM 40.9261 -75.5800 168° South 351 404 10,100 -120 Descending New York Center
07:46AM 40.8336 -75.5514 167° South 351 404 10,100  Level New York Center
07:47AM 40.7617 -75.5300 167° South 326 375 10,100  Level New York Center
07:48AM 40.6731 -75.5019 166° South 321 369 10,100 -120 Level New York Center
07:49AM 40.6200 -75.4850 166° South 311 358 10,000 -120 Descending FAA TRACON SMA TRACON (SMA)
07:49AM 40.5942 -75.4778 168° South 311 358 10,000  Level FAA TRACON SMA TRACON (SMA)
07:49AM 40.5683 -75.4692 166° South 311 358 10,000  Level FAA TRACON SMA TRACON (SMA)
07:50AM 40.5372 -75.4589 166° South 311 358 10,000  Level FAA TRACON SMA TRACON (SMA)
07:50AM 40.5100 -75.4517 169° South 311 358 10,000  Level FAA TRACON SMA TRACON (SMA)
07:50AM 40.4839 -75.4433 166° South 312 359 10,000 -180 Level FAA TRACON SMA TRACON (SMA)
07:51AM 40.4511 -75.4328 166° South 314 361 9,900 -600 Descending FAA TRACON SMA TRACON (SMA)
07:51AM 40.4258 -75.4197 159° South 325 374 9,600 -1,080 Descending FAA TRACON SMA TRACON (SMA)
07:51AM 40.4017 -75.4053 156° South 311 358 9,200 -1,380 Descending FAA TRACON SMA TRACON (SMA)
07:52AM 40.3728 -75.3878 155° Southeast 307 353 8,700 -1,500 Descending FAA TRACON SMA TRACON (SMA)
07:52AM 40.3478 -75.3739 157° South 303 349 8,200 -1,380 Descending FAA TRACON SMA TRACON (SMA)
07:52AM 40.3244 -75.3597 155° Southeast 302 348 7,800 -1,500 Descending FAA TRACON SMA TRACON (SMA)
07:53AM 40.2958 -75.3436 157° South 295 339 7,200 -1,200 Descending FAA TRACON SMA TRACON (SMA)
07:53AM 40.2733 -75.3303 156° South 294 338 7,000 -300 Descending FAA TRACON SMA TRACON (SMA)
07:53AM 40.2514 -75.3169 155° Southeast 294 338 7,000  Level FAA TRACON SMA TRACON (SMA)
07:54AM 40.2208 -75.3003 157° South 294 338 7,000  Level FAA TRACON SMA TRACON (SMA)
07:54AM 40.1981 -75.2869 156° South 293 337 7,000  Level FAA TRACON SMA TRACON (SMA)
07:54AM 40.1756 -75.2742 157° South 290 334 7,000 -180 Level FAA TRACON SMA TRACON (SMA)
07:55AM 40.1467 -75.2575 156° South 290 334 6,900 -300 Descending FAA TRACON SMA TRACON (SMA)
07:55AM 40.1242 -75.2442 156° South 290 334 6,800 -480 Descending FAA TRACON SMA TRACON (SMA)
07:55AM 40.1050 -75.2281 147° Southeast 292 336 6,600 -600 Descending FAA TRACON SMA TRACON (SMA)
07:56AM 40.0814 -75.1994 137° Southeast 274 315 6,400 -660 Descending FAA TRACON SMA TRACON (SMA)
07:56AM 40.0650 -75.1783 135° Southeast 265 305 6,200 -600 Descending FAA TRACON SMA TRACON (SMA)
07:56AM 40.0492 -75.1581 136° Southeast 258 297 6,000 -300 Descending FAA TRACON SMA TRACON (SMA)
07:57AM 40.0336 -75.1386 136° Southeast 249 287 6,000 -180 Level FAA TRACON SMA TRACON (SMA)
07:57AM 40.0156 -75.1164 137° Southeast 229 264 5,900 -780 Descending FAA TRACON SMA TRACON (SMA)
07:57AM 40.0036 -75.0983 131° Southeast 224 258 5,500 -1,200 Descending FAA TRACON SMA TRACON (SMA)
07:58AM 39.9961 -75.0742 112° Southeast 230 265 5,100 -1,080 Descending FAA TRACON SMA TRACON (SMA)
07:58AM 40.0000 -75.0439 80° East 218 251 4,800 -1,080 Descending FAA TRACON SMA TRACON (SMA)
07:58AM 39.9956 -75.0200 104° East 229 264 4,400 -1,200 Descending FAA TRACON SMA TRACON (SMA)
07:59AM 39.9756 -75.0050 150° Southeast 220 253 4,000 -780 Descending FAA TRACON SMA TRACON (SMA)
07:59AM 39.9592 -74.9986 163° South 196 226 3,900 -600 Descending FAA TRACON SMA TRACON (SMA)
07:59AM 39.9450 -74.9997 183° South 183 211 3,600 -1,200 Descending FAA TRACON SMA TRACON (SMA)
08:00AM 39.9339 -75.0125 221° Southwest 167 192 3,100 -1,800 Descending FAA TRACON SMA TRACON (SMA)
08:00AM 39.9206 -75.0294 224° Southwest 173 199 2,400 -2,220 Descending FAA TRACON SMA TRACON (SMA)